sensor_id;sensor_type;location;lat;lon;timestamp;temperature;humidity
14908;DHT22;7545;52.092;7.006;2023-07-28T00:01:34;17.90;99.90
14908;DHT22;7545;52.092;7.006;2023-07-28T00:04:00;17.90;99.90
14908;DHT22;7545;52.092;7.006;2023-07-28T00:06:25;17.90;99.90
14908;DHT22;7545;52.092;7.006;2023-07-28T00:08:51;18.00;99.90
14908;DHT22;7545;52.092;7.006;2023-07-28T00:11:17;17.90;99.90
14908;DHT22;7545;52.092;7.006;2023-07-28T00:13:42;17.90;99.90
14908;DHT22;7545;52.092;7.006;2023-07-28T00:16:09;17.90;99.90
14908;DHT22;7545;52.092;7.006;2023-07-28T00:18:35;17.90;99.90
14908;DHT22;7545;52.092;7.006;2023-07-28T00:21:00;17.90;99.90
14908;DHT22;7545;52.092;7.006;2023-07-28T00:23:28;18.00;99.90
14908;DHT22;7545;52.092;7.006;2023-07-28T00:25:53;17.90;99.90
14908;DHT22;7545;52.092;7.006;2023-07-28T00:28:19;17.90;99.90
14908;DHT22;7545;52.092;7.006;2023-07-28T00:30:49;18.00;99.90
14908;DHT22;7545;52.092;7.006;2023-07-28T00:33:15;18.00;99.90
14908;DHT22;7545;52.092;7.006;2023-07-28T00:35:40;17.90;99.90
14908;DHT22;7545;52.092;7.006;2023-07-28T00:38:06;18.00;99.90
14908;DHT22;7545;52.092;7.006;2023-07-28T00:40:31;18.00;99.90
14908;DHT22;7545;52.092;7.006;2023-07-28T00:42:57;17.90;99.90
14908;DHT22;7545;52.092;7.006;2023-07-28T00:45:23;18.00;99.90
14908;DHT22;7545;52.092;7.006;2023-07-28T00:47:48;18.00;99.90
14908;DHT22;7545;52.092;7.006;2023-07-28T00:50:14;17.90;99.90
14908;DHT22;7545;52.092;7.006;2023-07-28T00:52:40;18.00;99.90
14908;DHT22;7545;52.092;7.006;2023-07-28T00:55:06;17.90;99.90
14908;DHT22;7545;52.092;7.006;2023-07-28T00:57:33;17.90;99.90
14908;DHT22;7545;52.092;7.006;2023-07-28T00:59:58;17.90;99.90
14908;DHT22;7545;52.092;7.006;2023-07-28T01:02:25;17.90;99.90
14908;DHT22;7545;52.092;7.006;2023-07-28T01:04:50;17.90;99.90
14908;DHT22;7545;52.092;7.006;2023-07-28T01:07:26;17.90;99.90
14908;DHT22;7545;52.092;7.006;2023-07-28T01:12:28;17.90;99.90
14908;DHT22;7545;52.092;7.006;2023-07-28T01:14:53;17.90;99.90
14908;DHT22;7545;52.092;7.006;2023-07-28T01:17:19;17.90;99.90
14908;DHT22;7545;52.092;7.006;2023-07-28T01:19:45;17.90;99.90
14908;DHT22;7545;52.092;7.006;2023-07-28T01:27:38;18.00;99.90
14908;DHT22;7545;52.092;7.006;2023-07-28T01:30:08;17.90;99.90
14908;DHT22;7545;52.092;7.006;2023-07-28T01:32:35;18.00;99.90
14908;DHT22;7545;52.092;7.006;2023-07-28T01:35:04;17.90;99.90
14908;DHT22;7545;52.092;7.006;2023-07-28T01:37:30;17.90;99.90
14908;DHT22;7545;52.092;7.006;2023-07-28T01:39:56;17.90;99.90
14908;DHT22;7545;52.092;7.006;2023-07-28T01:42:23;17.90;99.90
14908;DHT22;7545;52.092;7.006;2023-07-28T01:44:48;17.90;99.90
14908;DHT22;7545;52.092;7.006;2023-07-28T01:47:14;17.90;99.90
14908;DHT22;7545;52.092;7.006;2023-07-28T01:49:39;17.90;99.90
14908;DHT22;7545;52.092;7.006;2023-07-28T01:52:05;17.90;99.90
14908;DHT22;7545;52.092;7.006;2023-07-28T01:54:31;17.90;99.90
14908;DHT22;7545;52.092;7.006;2023-07-28T01:56:56;17.90;99.90
14908;DHT22;7545;52.092;7.006;2023-07-28T01:59:22;17.90;99.90
14908;DHT22;7545;52.092;7.006;2023-07-28T02:01:47;17.90;99.90
14908;DHT22;7545;52.092;7.006;2023-07-28T02:04:13;17.90;99.90
14908;DHT22;7545;52.092;7.006;2023-07-28T02:06:39;17.90;99.90
14908;DHT22;7545;52.092;7.006;2023-07-28T02:09:05;17.90;99.90
14908;DHT22;7545;52.092;7.006;2023-07-28T02:11:30;17.90;99.90
14908;DHT22;7545;52.092;7.006;2023-07-28T02:13:56;17.90;99.90
14908;DHT22;7545;52.092;7.006;2023-07-28T02:16:21;17.90;99.90
14908;DHT22;7545;52.092;7.006;2023-07-28T02:18:47;17.90;99.90
14908;DHT22;7545;52.092;7.006;2023-07-28T02:21:12;17.90;99.90
14908;DHT22;7545;52.092;7.006;2023-07-28T02:23:38;17.90;99.90
14908;DHT22;7545;52.092;7.006;2023-07-28T02:26:03;17.90;99.90
14908;DHT22;7545;52.092;7.006;2023-07-28T02:28:29;17.90;99.90
14908;DHT22;7545;52.092;7.006;2023-07-28T02:30:55;17.90;99.90
14908;DHT22;7545;52.092;7.006;2023-07-28T02:33:20;17.90;99.90
14908;DHT22;7545;52.092;7.006;2023-07-28T02:35:46;17.90;99.90
14908;DHT22;7545;52.092;7.006;2023-07-28T02:38:11;17.90;99.90
14908;DHT22;7545;52.092;7.006;2023-07-28T02:40:37;17.90;99.90
14908;DHT22;7545;52.092;7.006;2023-07-28T02:43:02;17.90;99.90
14908;DHT22;7545;52.092;7.006;2023-07-28T02:45:28;17.90;99.90
14908;DHT22;7545;52.092;7.006;2023-07-28T02:47:53;17.90;99.90
14908;DHT22;7545;52.092;7.006;2023-07-28T02:50:19;17.90;99.90
14908;DHT22;7545;52.092;7.006;2023-07-28T02:52:44;17.90;99.90
14908;DHT22;7545;52.092;7.006;2023-07-28T02:55:10;17.90;99.90
14908;DHT22;7545;52.092;7.006;2023-07-28T02:57:35;17.90;99.90
14908;DHT22;7545;52.092;7.006;2023-07-28T03:00:01;17.90;99.90
14908;DHT22;7545;52.092;7.006;2023-07-28T03:02:27;17.90;99.90
14908;DHT22;7545;52.092;7.006;2023-07-28T03:04:52;17.90;99.90
14908;DHT22;7545;52.092;7.006;2023-07-28T03:07:18;17.90;99.90
14908;DHT22;7545;52.092;7.006;2023-07-28T03:09:43;17.90;99.90
14908;DHT22;7545;52.092;7.006;2023-07-28T03:12:10;17.90;99.90
14908;DHT22;7545;52.092;7.006;2023-07-28T03:14:36;17.90;99.90
14908;DHT22;7545;52.092;7.006;2023-07-28T03:17:02;17.90;99.90
14908;DHT22;7545;52.092;7.006;2023-07-28T03:19:28;17.90;99.90
14908;DHT22;7545;52.092;7.006;2023-07-28T03:21:53;17.90;99.90
14908;DHT22;7545;52.092;7.006;2023-07-28T03:24:19;17.90;99.90
14908;DHT22;7545;52.092;7.006;2023-07-28T03:26:44;17.90;99.90
14908;DHT22;7545;52.092;7.006;2023-07-28T03:29:10;17.90;99.90
14908;DHT22;7545;52.092;7.006;2023-07-28T03:31:35;17.90;99.90
14908;DHT22;7545;52.092;7.006;2023-07-28T03:34:02;17.90;99.90
14908;DHT22;7545;52.092;7.006;2023-07-28T03:36:28;17.90;99.90
14908;DHT22;7545;52.092;7.006;2023-07-28T03:38:53;17.90;99.90
14908;DHT22;7545;52.092;7.006;2023-07-28T03:41:19;17.90;99.90
14908;DHT22;7545;52.092;7.006;2023-07-28T03:43:45;17.90;99.90
14908;DHT22;7545;52.092;7.006;2023-07-28T03:46:11;17.90;99.90
14908;DHT22;7545;52.092;7.006;2023-07-28T03:48:36;17.90;99.90
14908;DHT22;7545;52.092;7.006;2023-07-28T03:51:02;17.90;99.90
14908;DHT22;7545;52.092;7.006;2023-07-28T03:53:28;17.90;99.90
14908;DHT22;7545;52.092;7.006;2023-07-28T03:55:53;17.90;99.90
14908;DHT22;7545;52.092;7.006;2023-07-28T03:58:26;17.90;99.90
14908;DHT22;7545;52.092;7.006;2023-07-28T04:00:54;17.90;99.90
14908;DHT22;7545;52.092;7.006;2023-07-28T04:03:20;17.90;99.90
14908;DHT22;7545;52.092;7.006;2023-07-28T04:05:45;17.90;99.90
14908;DHT22;7545;52.092;7.006;2023-07-28T04:08:11;17.90;99.90
14908;DHT22;7545;52.092;7.006;2023-07-28T04:10:36;17.90;99.90
14908;DHT22;7545;52.092;7.006;2023-07-28T04:13:02;17.90;99.90
14908;DHT22;7545;52.092;7.006;2023-07-28T04:15:28;17.90;99.90
14908;DHT22;7545;52.092;7.006;2023-07-28T04:17:53;17.90;99.90
14908;DHT22;7545;52.092;7.006;2023-07-28T04:20:19;17.90;99.90
14908;DHT22;7545;52.092;7.006;2023-07-28T04:22:44;17.90;99.90
14908;DHT22;7545;52.092;7.006;2023-07-28T04:25:10;17.90;99.90
14908;DHT22;7545;52.092;7.006;2023-07-28T04:27:35;17.90;99.90
14908;DHT22;7545;52.092;7.006;2023-07-28T04:30:01;17.90;99.90
14908;DHT22;7545;52.092;7.006;2023-07-28T04:32:27;17.90;99.90
14908;DHT22;7545;52.092;7.006;2023-07-28T04:34:52;17.90;99.90
14908;DHT22;7545;52.092;7.006;2023-07-28T04:37:19;17.90;99.90
14908;DHT22;7545;52.092;7.006;2023-07-28T04:39:44;18.00;99.90
14908;DHT22;7545;52.092;7.006;2023-07-28T04:42:10;17.90;99.90
14908;DHT22;7545;52.092;7.006;2023-07-28T04:44:37;17.90;99.90
14908;DHT22;7545;52.092;7.006;2023-07-28T04:47:05;18.00;99.90
14908;DHT22;7545;52.092;7.006;2023-07-28T04:49:30;18.00;99.90
14908;DHT22;7545;52.092;7.006;2023-07-28T04:51:56;18.00;99.90
14908;DHT22;7545;52.092;7.006;2023-07-28T04:54:21;18.00;99.90
14908;DHT22;7545;52.092;7.006;2023-07-28T04:56:47;18.00;99.90
14908;DHT22;7545;52.092;7.006;2023-07-28T04:59:15;18.00;99.90
14908;DHT22;7545;52.092;7.006;2023-07-28T05:01:40;18.00;99.90
14908;DHT22;7545;52.092;7.006;2023-07-28T05:04:06;18.00;99.90
14908;DHT22;7545;52.092;7.006;2023-07-28T05:06:32;18.00;99.90
14908;DHT22;7545;52.092;7.006;2023-07-28T05:08:57;18.00;99.90
14908;DHT22;7545;52.092;7.006;2023-07-28T05:11:23;18.00;99.90
14908;DHT22;7545;52.092;7.006;2023-07-28T05:13:48;18.00;99.90
14908;DHT22;7545;52.092;7.006;2023-07-28T05:16:14;18.00;99.90
14908;DHT22;7545;52.092;7.006;2023-07-28T05:18:39;18.00;99.90
14908;DHT22;7545;52.092;7.006;2023-07-28T05:21:08;18.00;99.90
14908;DHT22;7545;52.092;7.006;2023-07-28T05:23:34;18.00;99.90
14908;DHT22;7545;52.092;7.006;2023-07-28T05:25:59;18.00;99.90
14908;DHT22;7545;52.092;7.006;2023-07-28T05:28:25;18.00;99.90
14908;DHT22;7545;52.092;7.006;2023-07-28T05:30:50;18.00;99.90
14908;DHT22;7545;52.092;7.006;2023-07-28T05:33:16;18.00;99.90
14908;DHT22;7545;52.092;7.006;2023-07-28T05:35:41;18.00;99.90
14908;DHT22;7545;52.092;7.006;2023-07-28T05:38:07;18.00;99.90
14908;DHT22;7545;52.092;7.006;2023-07-28T05:40:33;18.00;99.90
14908;DHT22;7545;52.092;7.006;2023-07-28T05:42:58;18.00;99.90
14908;DHT22;7545;52.092;7.006;2023-07-28T05:45:24;18.00;99.90
14908;DHT22;7545;52.092;7.006;2023-07-28T05:47:49;18.10;99.90
14908;DHT22;7545;52.092;7.006;2023-07-28T05:50:15;18.10;99.90
14908;DHT22;7545;52.092;7.006;2023-07-28T05:52:40;18.10;99.90
14908;DHT22;7545;52.092;7.006;2023-07-28T05:55:06;18.10;99.90
14908;DHT22;7545;52.092;7.006;2023-07-28T05:57:32;18.10;99.90
14908;DHT22;7545;52.092;7.006;2023-07-28T05:59:57;18.10;99.90
14908;DHT22;7545;52.092;7.006;2023-07-28T06:02:23;18.20;99.90
14908;DHT22;7545;52.092;7.006;2023-07-28T06:04:49;18.20;99.90
14908;DHT22;7545;52.092;7.006;2023-07-28T06:07:14;18.20;99.90
14908;DHT22;7545;52.092;7.006;2023-07-28T06:09:40;18.20;99.90
14908;DHT22;7545;52.092;7.006;2023-07-28T06:12:05;18.20;99.90
14908;DHT22;7545;52.092;7.006;2023-07-28T06:14:31;18.30;99.90
14908;DHT22;7545;52.092;7.006;2023-07-28T06:16:57;18.30;99.90
14908;DHT22;7545;52.092;7.006;2023-07-28T06:19:22;18.30;99.90
14908;DHT22;7545;52.092;7.006;2023-07-28T06:21:50;18.30;99.90
14908;DHT22;7545;52.092;7.006;2023-07-28T06:24:16;18.40;99.90
14908;DHT22;7545;52.092;7.006;2023-07-28T06:26:42;18.40;99.90
14908;DHT22;7545;52.092;7.006;2023-07-28T06:29:07;18.40;99.90
14908;DHT22;7545;52.092;7.006;2023-07-28T06:31:33;18.40;99.90
14908;DHT22;7545;52.092;7.006;2023-07-28T06:33:58;18.40;99.90
14908;DHT22;7545;52.092;7.006;2023-07-28T06:36:24;18.40;99.90
14908;DHT22;7545;52.092;7.006;2023-07-28T06:38:49;18.40;99.90
14908;DHT22;7545;52.092;7.006;2023-07-28T06:41:17;18.40;99.90
14908;DHT22;7545;52.092;7.006;2023-07-28T06:43:43;18.40;99.90
14908;DHT22;7545;52.092;7.006;2023-07-28T06:46:08;18.40;99.90
14908;DHT22;7545;52.092;7.006;2023-07-28T06:48:34;18.40;99.90
14908;DHT22;7545;52.092;7.006;2023-07-28T06:50:59;18.40;99.90
14908;DHT22;7545;52.092;7.006;2023-07-28T06:53:25;18.40;99.90
14908;DHT22;7545;52.092;7.006;2023-07-28T06:55:51;18.40;99.90
14908;DHT22;7545;52.092;7.006;2023-07-28T06:58:16;18.40;99.90
14908;DHT22;7545;52.092;7.006;2023-07-28T07:00:42;18.40;99.90
14908;DHT22;7545;52.092;7.006;2023-07-28T07:03:09;18.40;99.90
14908;DHT22;7545;52.092;7.006;2023-07-28T07:05:35;18.40;99.90
14908;DHT22;7545;52.092;7.006;2023-07-28T07:08:01;18.40;99.90
14908;DHT22;7545;52.092;7.006;2023-07-28T07:10:27;18.40;99.90
14908;DHT22;7545;52.092;7.006;2023-07-28T07:12:52;18.40;99.90
14908;DHT22;7545;52.092;7.006;2023-07-28T07:15:18;18.40;99.90
14908;DHT22;7545;52.092;7.006;2023-07-28T07:17:43;18.40;99.90
14908;DHT22;7545;52.092;7.006;2023-07-28T07:20:09;18.40;99.90
14908;DHT22;7545;52.092;7.006;2023-07-28T07:22:36;18.40;99.90
14908;DHT22;7545;52.092;7.006;2023-07-28T07:25:03;18.40;99.90
14908;DHT22;7545;52.092;7.006;2023-07-28T07:27:29;18.40;99.90
14908;DHT22;7545;52.092;7.006;2023-07-28T07:29:55;18.40;99.90
14908;DHT22;7545;52.092;7.006;2023-07-28T07:32:20;18.40;99.90
14908;DHT22;7545;52.092;7.006;2023-07-28T07:34:46;18.40;99.90
14908;DHT22;7545;52.092;7.006;2023-07-28T07:37:12;18.40;99.90
14908;DHT22;7545;52.092;7.006;2023-07-28T07:39:38;18.40;99.90
14908;DHT22;7545;52.092;7.006;2023-07-28T07:42:03;18.40;99.90
14908;DHT22;7545;52.092;7.006;2023-07-28T07:44:30;18.40;99.90
14908;DHT22;7545;52.092;7.006;2023-07-28T07:46:56;18.50;99.90
14908;DHT22;7545;52.092;7.006;2023-07-28T07:49:21;18.50;99.90
14908;DHT22;7545;52.092;7.006;2023-07-28T07:51:47;18.50;99.90
14908;DHT22;7545;52.092;7.006;2023-07-28T07:54:13;18.50;99.90
14908;DHT22;7545;52.092;7.006;2023-07-28T07:56:41;18.50;99.90
14908;DHT22;7545;52.092;7.006;2023-07-28T07:59:07;18.50;99.90
14908;DHT22;7545;52.092;7.006;2023-07-28T08:01:33;18.50;99.90
14908;DHT22;7545;52.092;7.006;2023-07-28T08:03:58;18.50;99.90
14908;DHT22;7545;52.092;7.006;2023-07-28T08:06:24;18.50;99.90
14908;DHT22;7545;52.092;7.006;2023-07-28T08:08:49;18.50;99.90
14908;DHT22;7545;52.092;7.006;2023-07-28T08:11:18;18.50;99.90
14908;DHT22;7545;52.092;7.006;2023-07-28T08:13:43;18.50;99.90
14908;DHT22;7545;52.092;7.006;2023-07-28T08:16:10;18.50;99.90
14908;DHT22;7545;52.092;7.006;2023-07-28T08:18:36;18.50;99.90
14908;DHT22;7545;52.092;7.006;2023-07-28T08:21:01;18.50;99.90
14908;DHT22;7545;52.092;7.006;2023-07-28T08:23:27;18.50;99.90
14908;DHT22;7545;52.092;7.006;2023-07-28T08:25:53;18.50;99.90
14908;DHT22;7545;52.092;7.006;2023-07-28T08:28:18;18.60;99.90
14908;DHT22;7545;52.092;7.006;2023-07-28T08:30:44;18.60;99.90
14908;DHT22;7545;52.092;7.006;2023-07-28T08:33:10;18.60;99.90
14908;DHT22;7545;52.092;7.006;2023-07-28T08:35:35;18.60;99.90
14908;DHT22;7545;52.092;7.006;2023-07-28T08:38:01;18.60;99.90
14908;DHT22;7545;52.092;7.006;2023-07-28T08:40:26;18.70;99.90
14908;DHT22;7545;52.092;7.006;2023-07-28T08:42:53;18.70;99.90
14908;DHT22;7545;52.092;7.006;2023-07-28T08:45:19;18.70;99.90
14908;DHT22;7545;52.092;7.006;2023-07-28T08:47:45;18.70;99.90
14908;DHT22;7545;52.092;7.006;2023-07-28T08:50:11;18.80;99.90
14908;DHT22;7545;52.092;7.006;2023-07-28T08:52:36;18.80;99.90
14908;DHT22;7545;52.092;7.006;2023-07-28T08:55:02;18.80;99.90
14908;DHT22;7545;52.092;7.006;2023-07-28T08:57:28;18.80;99.90
14908;DHT22;7545;52.092;7.006;2023-07-28T08:59:54;18.80;99.90
14908;DHT22;7545;52.092;7.006;2023-07-28T09:02:20;18.80;99.90
14908;DHT22;7545;52.092;7.006;2023-07-28T09:04:46;18.90;99.90
14908;DHT22;7545;52.092;7.006;2023-07-28T09:07:12;18.90;99.90
14908;DHT22;7545;52.092;7.006;2023-07-28T09:09:40;18.90;99.90
14908;DHT22;7545;52.092;7.006;2023-07-28T09:12:06;19.00;99.90
14908;DHT22;7545;52.092;7.006;2023-07-28T09:14:36;18.90;99.90
14908;DHT22;7545;52.092;7.006;2023-07-28T09:17:12;19.00;99.90
14908;DHT22;7545;52.092;7.006;2023-07-28T09:19:55;19.00;99.90
14908;DHT22;7545;52.092;7.006;2023-07-28T09:22:21;19.00;99.90
14908;DHT22;7545;52.092;7.006;2023-07-28T09:24:48;19.10;99.90
14908;DHT22;7545;52.092;7.006;2023-07-28T09:27:24;19.10;99.90
14908;DHT22;7545;52.092;7.006;2023-07-28T09:29:51;19.10;99.90
14908;DHT22;7545;52.092;7.006;2023-07-28T09:32:29;19.10;99.90
14908;DHT22;7545;52.092;7.006;2023-07-28T09:35:10;19.20;99.90
14908;DHT22;7545;52.092;7.006;2023-07-28T09:37:38;19.20;99.90
14908;DHT22;7545;52.092;7.006;2023-07-28T09:40:07;19.20;99.90
14908;DHT22;7545;52.092;7.006;2023-07-28T09:42:37;19.30;99.90
14908;DHT22;7545;52.092;7.006;2023-07-28T09:45:03;19.30;99.90
14908;DHT22;7545;52.092;7.006;2023-07-28T09:47:30;19.40;99.90
14908;DHT22;7545;52.092;7.006;2023-07-28T09:49:59;19.40;99.90
14908;DHT22;7545;52.092;7.006;2023-07-28T09:52:28;19.40;99.90
14908;DHT22;7545;52.092;7.006;2023-07-28T09:54:56;19.50;99.90
14908;DHT22;7545;52.092;7.006;2023-07-28T09:57:25;19.50;99.90
14908;DHT22;7545;52.092;7.006;2023-07-28T09:59:54;19.50;99.90
14908;DHT22;7545;52.092;7.006;2023-07-28T10:02:21;19.50;99.90
14908;DHT22;7545;52.092;7.006;2023-07-28T10:04:48;19.50;99.90
14908;DHT22;7545;52.092;7.006;2023-07-28T10:07:14;19.50;99.90
14908;DHT22;7545;52.092;7.006;2023-07-28T10:09:39;19.50;99.90
14908;DHT22;7545;52.092;7.006;2023-07-28T10:12:06;19.50;99.90
14908;DHT22;7545;52.092;7.006;2023-07-28T10:14:35;19.50;99.90
14908;DHT22;7545;52.092;7.006;2023-07-28T10:17:04;19.50;99.90
14908;DHT22;7545;52.092;7.006;2023-07-28T10:19:34;19.60;99.90
14908;DHT22;7545;52.092;7.006;2023-07-28T10:22:09;19.60;99.90
14908;DHT22;7545;52.092;7.006;2023-07-28T10:24:55;19.60;99.90
14908;DHT22;7545;52.092;7.006;2023-07-28T10:27:35;19.70;99.90
14908;DHT22;7545;52.092;7.006;2023-07-28T10:30:12;19.70;99.90
14908;DHT22;7545;52.092;7.006;2023-07-28T10:32:40;19.70;99.90
14908;DHT22;7545;52.092;7.006;2023-07-28T10:37:37;19.80;99.90
14908;DHT22;7545;52.092;7.006;2023-07-28T10:42:54;20.00;99.90
14908;DHT22;7545;52.092;7.006;2023-07-28T10:45:25;20.00;99.90
14908;DHT22;7545;52.092;7.006;2023-07-28T10:47:52;20.10;99.90
14908;DHT22;7545;52.092;7.006;2023-07-28T10:50:23;20.10;99.90
14908;DHT22;7545;52.092;7.006;2023-07-28T10:52:50;20.10;99.90
14908;DHT22;7545;52.092;7.006;2023-07-28T10:55:17;20.20;99.90
14908;DHT22;7545;52.092;7.006;2023-07-28T10:57:44;20.20;99.90
14908;DHT22;7545;52.092;7.006;2023-07-28T11:00:11;20.20;99.90
14908;DHT22;7545;52.092;7.006;2023-07-28T11:02:45;20.20;99.90
14908;DHT22;7545;52.092;7.006;2023-07-28T11:05:24;20.30;99.90
14908;DHT22;7545;52.092;7.006;2023-07-28T11:07:54;20.30;99.90
14908;DHT22;7545;52.092;7.006;2023-07-28T11:10:20;20.20;99.90
14908;DHT22;7545;52.092;7.006;2023-07-28T11:12:49;20.30;99.90
14908;DHT22;7545;52.092;7.006;2023-07-28T11:15:16;20.30;99.90
14908;DHT22;7545;52.092;7.006;2023-07-28T11:17:49;20.30;99.90
14908;DHT22;7545;52.092;7.006;2023-07-28T11:22:46;20.40;99.90
14908;DHT22;7545;52.092;7.006;2023-07-28T11:25:12;20.60;99.90
14908;DHT22;7545;52.092;7.006;2023-07-28T11:27:39;20.70;99.90
14908;DHT22;7545;52.092;7.006;2023-07-28T11:30:07;20.90;99.90
14908;DHT22;7545;52.092;7.006;2023-07-28T11:32:36;21.10;99.90
14908;DHT22;7545;52.092;7.006;2023-07-28T11:35:03;21.30;99.90
14908;DHT22;7545;52.092;7.006;2023-07-28T11:37:29;21.40;99.90
14908;DHT22;7545;52.092;7.006;2023-07-28T11:39:55;21.40;99.90
14908;DHT22;7545;52.092;7.006;2023-07-28T11:42:22;21.50;99.90
14908;DHT22;7545;52.092;7.006;2023-07-28T11:44:48;21.60;99.90
14908;DHT22;7545;52.092;7.006;2023-07-28T11:47:17;21.60;99.90
14908;DHT22;7545;52.092;7.006;2023-07-28T11:49:48;21.70;99.90
14908;DHT22;7545;52.092;7.006;2023-07-28T11:52:14;21.70;99.90
14908;DHT22;7545;52.092;7.006;2023-07-28T11:54:41;21.80;99.90
14908;DHT22;7545;52.092;7.006;2023-07-28T11:57:08;22.00;99.90
14908;DHT22;7545;52.092;7.006;2023-07-28T11:59:34;22.20;99.90
14908;DHT22;7545;52.092;7.006;2023-07-28T12:02:04;22.50;99.90
14908;DHT22;7545;52.092;7.006;2023-07-28T12:04:32;22.70;99.90
14908;DHT22;7545;52.092;7.006;2023-07-28T12:07:13;22.80;99.90
14908;DHT22;7545;52.092;7.006;2023-07-28T12:12:26;22.90;99.90
14908;DHT22;7545;52.092;7.006;2023-07-28T12:14:52;22.90;99.90
14908;DHT22;7545;52.092;7.006;2023-07-28T12:17:21;23.00;99.90
14908;DHT22;7545;52.092;7.006;2023-07-28T12:22:37;23.20;99.90
14908;DHT22;7545;52.092;7.006;2023-07-28T12:25:04;23.30;99.90
14908;DHT22;7545;52.092;7.006;2023-07-28T12:27:30;23.30;99.90
14908;DHT22;7545;52.092;7.006;2023-07-28T12:29:56;23.40;99.90
14908;DHT22;7545;52.092;7.006;2023-07-28T12:32:22;23.40;99.90
14908;DHT22;7545;52.092;7.006;2023-07-28T12:34:51;23.40;99.90
14908;DHT22;7545;52.092;7.006;2023-07-28T12:37:17;23.30;99.90
14908;DHT22;7545;52.092;7.006;2023-07-28T12:39:43;23.30;99.90
14908;DHT22;7545;52.092;7.006;2023-07-28T12:42:10;23.20;99.90
14908;DHT22;7545;52.092;7.006;2023-07-28T12:44:38;23.30;99.90
14908;DHT22;7545;52.092;7.006;2023-07-28T12:47:05;23.40;99.90
14908;DHT22;7545;52.092;7.006;2023-07-28T12:49:31;23.40;99.90
14908;DHT22;7545;52.092;7.006;2023-07-28T12:51:58;23.40;99.90
14908;DHT22;7545;52.092;7.006;2023-07-28T12:54:24;23.30;99.90
14908;DHT22;7545;52.092;7.006;2023-07-28T12:56:50;23.20;99.90
14908;DHT22;7545;52.092;7.006;2023-07-28T12:59:16;23.10;99.90
14908;DHT22;7545;52.092;7.006;2023-07-28T13:01:42;23.00;99.90
14908;DHT22;7545;52.092;7.006;2023-07-28T13:04:07;23.00;99.90
14908;DHT22;7545;52.092;7.006;2023-07-28T13:06:33;23.00;99.90
14908;DHT22;7545;52.092;7.006;2023-07-28T13:08:59;23.20;99.90
14908;DHT22;7545;52.092;7.006;2023-07-28T13:11:25;23.20;99.90
14908;DHT22;7545;52.092;7.006;2023-07-28T13:13:50;23.40;99.90
14908;DHT22;7545;52.092;7.006;2023-07-28T13:16:16;23.60;99.90
14908;DHT22;7545;52.092;7.006;2023-07-28T13:18:45;23.70;99.90
14908;DHT22;7545;52.092;7.006;2023-07-28T13:21:10;24.00;99.90
14908;DHT22;7545;52.092;7.006;2023-07-28T13:23:37;24.10;99.90
14908;DHT22;7545;52.092;7.006;2023-07-28T13:26:03;24.30;99.90
14908;DHT22;7545;52.092;7.006;2023-07-28T13:28:29;24.50;99.90
14908;DHT22;7545;52.092;7.006;2023-07-28T13:30:55;24.60;99.90
14908;DHT22;7545;52.092;7.006;2023-07-28T13:33:21;24.70;99.90
14908;DHT22;7545;52.092;7.006;2023-07-28T13:35:47;24.90;99.90
14908;DHT22;7545;52.092;7.006;2023-07-28T13:38:12;25.00;99.90
14908;DHT22;7545;52.092;7.006;2023-07-28T13:40:38;25.00;99.90
14908;DHT22;7545;52.092;7.006;2023-07-28T13:43:04;25.00;99.90
14908;DHT22;7545;52.092;7.006;2023-07-28T13:45:29;25.10;99.90
14908;DHT22;7545;52.092;7.006;2023-07-28T13:47:55;25.30;99.90
14908;DHT22;7545;52.092;7.006;2023-07-28T13:50:21;25.30;99.90
14908;DHT22;7545;52.092;7.006;2023-07-28T13:52:47;25.20;99.90
14908;DHT22;7545;52.092;7.006;2023-07-28T13:55:12;25.00;99.90
14908;DHT22;7545;52.092;7.006;2023-07-28T13:57:38;24.90;99.90
14908;DHT22;7545;52.092;7.006;2023-07-28T14:00:06;24.90;99.90
14908;DHT22;7545;52.092;7.006;2023-07-28T14:02:38;24.90;99.90
14908;DHT22;7545;52.092;7.006;2023-07-28T14:05:05;25.00;99.90
14908;DHT22;7545;52.092;7.006;2023-07-28T14:07:31;25.00;99.90
14908;DHT22;7545;52.092;7.006;2023-07-28T14:09:57;25.10;99.90
14908;DHT22;7545;52.092;7.006;2023-07-28T14:12:22;25.20;99.90
14908;DHT22;7545;52.092;7.006;2023-07-28T14:14:48;25.30;99.90
14908;DHT22;7545;52.092;7.006;2023-07-28T14:17:15;25.40;99.90
14908;DHT22;7545;52.092;7.006;2023-07-28T14:19:41;25.50;99.90
14908;DHT22;7545;52.092;7.006;2023-07-28T14:22:07;25.50;99.90
14908;DHT22;7545;52.092;7.006;2023-07-28T14:24:33;25.50;99.90
14908;DHT22;7545;52.092;7.006;2023-07-28T14:26:59;25.50;99.90
14908;DHT22;7545;52.092;7.006;2023-07-28T14:29:25;25.50;99.90
14908;DHT22;7545;52.092;7.006;2023-07-28T14:31:50;25.50;99.90
14908;DHT22;7545;52.092;7.006;2023-07-28T14:34:16;25.50;99.90
14908;DHT22;7545;52.092;7.006;2023-07-28T14:36:41;25.40;99.90
14908;DHT22;7545;52.092;7.006;2023-07-28T14:39:07;25.40;99.90
14908;DHT22;7545;52.092;7.006;2023-07-28T14:41:34;25.30;99.90
14908;DHT22;7545;52.092;7.006;2023-07-28T14:44:00;25.30;99.90
14908;DHT22;7545;52.092;7.006;2023-07-28T14:46:25;25.40;99.90
14908;DHT22;7545;52.092;7.006;2023-07-28T14:48:51;25.40;99.90
14908;DHT22;7545;52.092;7.006;2023-07-28T14:51:17;25.40;99.90
14908;DHT22;7545;52.092;7.006;2023-07-28T14:53:43;25.40;99.90
14908;DHT22;7545;52.092;7.006;2023-07-28T14:56:10;25.30;99.90
14908;DHT22;7545;52.092;7.006;2023-07-28T14:58:36;25.30;99.90
14908;DHT22;7545;52.092;7.006;2023-07-28T15:01:02;25.30;99.90
14908;DHT22;7545;52.092;7.006;2023-07-28T15:03:30;25.30;99.90
14908;DHT22;7545;52.092;7.006;2023-07-28T15:05:58;25.30;99.90
14908;DHT22;7545;52.092;7.006;2023-07-28T15:08:24;25.40;99.90
14908;DHT22;7545;52.092;7.006;2023-07-28T15:10:50;25.30;99.90
14908;DHT22;7545;52.092;7.006;2023-07-28T15:13:16;25.30;99.90
14908;DHT22;7545;52.092;7.006;2023-07-28T15:15:42;25.40;99.90
14908;DHT22;7545;52.092;7.006;2023-07-28T15:18:08;25.40;99.90
14908;DHT22;7545;52.092;7.006;2023-07-28T15:20:33;25.40;99.90
14908;DHT22;7545;52.092;7.006;2023-07-28T15:22:59;25.40;99.90
14908;DHT22;7545;52.092;7.006;2023-07-28T15:25:26;25.40;99.90
14908;DHT22;7545;52.092;7.006;2023-07-28T15:27:51;25.50;99.90
14908;DHT22;7545;52.092;7.006;2023-07-28T15:30:17;25.50;99.90
14908;DHT22;7545;52.092;7.006;2023-07-28T15:32:43;25.50;99.90
14908;DHT22;7545;52.092;7.006;2023-07-28T15:35:08;25.40;99.90
14908;DHT22;7545;52.092;7.006;2023-07-28T15:37:36;25.30;99.90
14908;DHT22;7545;52.092;7.006;2023-07-28T15:40:02;25.30;99.90
14908;DHT22;7545;52.092;7.006;2023-07-28T15:42:27;25.30;99.90
14908;DHT22;7545;52.092;7.006;2023-07-28T15:44:53;25.30;99.90
14908;DHT22;7545;52.092;7.006;2023-07-28T15:47:19;25.30;99.90
14908;DHT22;7545;52.092;7.006;2023-07-28T15:49:44;25.20;99.90
14908;DHT22;7545;52.092;7.006;2023-07-28T15:52:10;25.20;99.90
14908;DHT22;7545;52.092;7.006;2023-07-28T15:54:35;25.10;99.90
14908;DHT22;7545;52.092;7.006;2023-07-28T15:57:01;25.20;99.90
14908;DHT22;7545;52.092;7.006;2023-07-28T15:59:29;25.20;99.90
14908;DHT22;7545;52.092;7.006;2023-07-28T16:01:55;25.20;99.90